sensor_id;sensor_type;location;lat;lon;timestamp;P1;durP1;ratioP1;P2;durP2;ratioP2
74233;SDS011;62591;55.764;37.718;2023-02-12T00:01:37;10.88;;;5.20;;
74233;SDS011;62591;55.764;37.718;2023-02-12T00:04:06;9.13;;;4.57;;
74233;SDS011;62591;55.764;37.718;2023-02-12T00:06:34;6.20;;;3.65;;
74233;SDS011;62591;55.764;37.718;2023-02-12T00:09:03;12.40;;;5.45;;
74233;SDS011;62591;55.764;37.718;2023-02-12T00:11:33;8.15;;;4.50;;
74233;SDS011;62591;55.764;37.718;2023-02-12T00:14:02;7.85;;;3.38;;
74233;SDS011;62591;55.764;37.718;2023-02-12T00:16:31;10.32;;;3.45;;
74233;SDS011;62591;55.764;37.718;2023-02-12T00:18:59;4.78;;;2.78;;
74233;SDS011;62591;55.764;37.718;2023-02-12T00:21:28;4.93;;;2.70;;
74233;SDS011;62591;55.764;37.718;2023-02-12T00:23:56;5.10;;;2.70;;
74233;SDS011;62591;55.764;37.718;2023-02-12T00:26:25;4.30;;;2.10;;
74233;SDS011;62591;55.764;37.718;2023-02-12T00:28:55;4.07;;;2.38;;
74233;SDS011;62591;55.764;37.718;2023-02-12T00:31:26;2.88;;;1.50;;
74233;SDS011;62591;55.764;37.718;2023-02-12T00:33:55;2.33;;;1.38;;
74233;SDS011;62591;55.764;37.718;2023-02-12T00:36:25;4.55;;;2.20;;
74233;SDS011;62591;55.764;37.718;2023-02-12T00:38:56;4.03;;;1.95;;
74233;SDS011;62591;55.764;37.718;2023-02-12T00:41:25;3.63;;;1.48;;
74233;SDS011;62591;55.764;37.718;2023-02-12T00:43:55;5.28;;;2.15;;
74233;SDS011;62591;55.764;37.718;2023-02-12T00:46:24;5.85;;;2.38;;
74233;SDS011;62591;55.764;37.718;2023-02-12T00:48:53;4.93;;;2.53;;
74233;SDS011;62591;55.764;37.718;2023-02-12T00:51:21;5.13;;;2.75;;
74233;SDS011;62591;55.764;37.718;2023-02-12T00:53:50;5.15;;;2.60;;
74233;SDS011;62591;55.764;37.718;2023-02-12T00:56:18;5.95;;;2.95;;
74233;SDS011;62591;55.764;37.718;2023-02-12T00:58:48;6.57;;;3.15;;
74233;SDS011;62591;55.764;37.718;2023-02-12T01:01:17;5.80;;;3.20;;
74233;SDS011;62591;55.764;37.718;2023-02-12T01:03:46;5.13;;;2.88;;
74233;SDS011;62591;55.764;37.718;2023-02-12T01:06:15;5.28;;;2.65;;
74233;SDS011;62591;55.764;37.718;2023-02-12T01:08:45;6.78;;;3.25;;
74233;SDS011;62591;55.764;37.718;2023-02-12T01:11:18;5.38;;;2.92;;
74233;SDS011;62591;55.764;37.718;2023-02-12T01:13:47;8.95;;;3.90;;
74233;SDS011;62591;55.764;37.718;2023-02-12T01:16:18;4.43;;;2.10;;
74233;SDS011;62591;55.764;37.718;2023-02-12T01:18:49;5.13;;;2.50;;
74233;SDS011;62591;55.764;37.718;2023-02-12T01:21:22;8.00;;;3.47;;
74233;SDS011;62591;55.764;37.718;2023-02-12T01:23:53;8.73;;;3.03;;
74233;SDS011;62591;55.764;37.718;2023-02-12T01:26:23;7.20;;;3.60;;
74233;SDS011;62591;55.764;37.718;2023-02-12T01:28:52;4.85;;;2.65;;
74233;SDS011;62591;55.764;37.718;2023-02-12T01:31:24;6.97;;;3.22;;
74233;SDS011;62591;55.764;37.718;2023-02-12T01:36:26;5.35;;;2.75;;
74233;SDS011;62591;55.764;37.718;2023-02-12T01:38:55;7.78;;;4.15;;
74233;SDS011;62591;55.764;37.718;2023-02-12T01:41:26;7.28;;;2.88;;
74233;SDS011;62591;55.764;37.718;2023-02-12T01:44:10;4.85;;;2.75;;
74233;SDS011;62591;55.764;37.718;2023-02-12T01:46:43;5.95;;;2.83;;
74233;SDS011;62591;55.764;37.718;2023-02-12T01:49:14;7.90;;;3.45;;
74233;SDS011;62591;55.764;37.718;2023-02-12T01:51:45;6.30;;;2.88;;
74233;SDS011;62591;55.764;37.718;2023-02-12T01:54:18;9.63;;;3.83;;
74233;SDS011;62591;55.764;37.718;2023-02-12T01:56:51;5.63;;;2.40;;
74233;SDS011;62591;55.764;37.718;2023-02-12T01:59:21;4.47;;;2.40;;
74233;SDS011;62591;55.764;37.718;2023-02-12T02:01:52;6.80;;;3.40;;
74233;SDS011;62591;55.764;37.718;2023-02-12T02:04:22;6.70;;;3.25;;
74233;SDS011;62591;55.764;37.718;2023-02-12T02:06:56;6.03;;;2.95;;
74233;SDS011;62591;55.764;37.718;2023-02-12T02:09:26;7.95;;;3.40;;
74233;SDS011;62591;55.764;37.718;2023-02-12T02:11:56;7.13;;;3.03;;
74233;SDS011;62591;55.764;37.718;2023-02-12T02:14:42;6.78;;;3.10;;
74233;SDS011;62591;55.764;37.718;2023-02-12T02:17:15;8.43;;;2.47;;
74233;SDS011;62591;55.764;37.718;2023-02-12T02:20:05;7.13;;;3.03;;
74233;SDS011;62591;55.764;37.718;2023-02-12T02:23:04;6.03;;;2.58;;
74233;SDS011;62591;55.764;37.718;2023-02-12T02:25:56;4.88;;;1.65;;
74233;SDS011;62591;55.764;37.718;2023-02-12T02:28:58;4.15;;;2.33;;
74233;SDS011;62591;55.764;37.718;2023-02-12T02:31:42;5.10;;;2.70;;
74233;SDS011;62591;55.764;37.718;2023-02-12T02:34:16;5.13;;;2.40;;
74233;SDS011;62591;55.764;37.718;2023-02-12T02:36:52;3.90;;;1.60;;
74233;SDS011;62591;55.764;37.718;2023-02-12T02:39:28;3.08;;;1.55;;
74233;SDS011;62591;55.764;37.718;2023-02-12T02:42:07;4.60;;;1.52;;
74233;SDS011;62591;55.764;37.718;2023-02-12T02:44:44;3.90;;;1.65;;
74233;SDS011;62591;55.764;37.718;2023-02-12T02:47:19;3.58;;;1.42;;
74233;SDS011;62591;55.764;37.718;2023-02-12T02:49:52;3.47;;;1.20;;
74233;SDS011;62591;55.764;37.718;2023-02-12T02:52:25;3.58;;;1.60;;
74233;SDS011;62591;55.764;37.718;2023-02-12T02:55:04;4.05;;;1.60;;
74233;SDS011;62591;55.764;37.718;2023-02-12T02:57:44;4.63;;;1.88;;
74233;SDS011;62591;55.764;37.718;2023-02-12T03:00:17;3.53;;;1.50;;
74233;SDS011;62591;55.764;37.718;2023-02-12T03:02:51;5.85;;;1.90;;
74233;SDS011;62591;55.764;37.718;2023-02-12T03:05:26;5.25;;;1.92;;
74233;SDS011;62591;55.764;37.718;2023-02-12T03:07:59;4.70;;;1.70;;
74233;SDS011;62591;55.764;37.718;2023-02-12T03:10:33;4.70;;;2.00;;
74233;SDS011;62591;55.764;37.718;2023-02-12T03:13:05;6.90;;;2.53;;
74233;SDS011;62591;55.764;37.718;2023-02-12T03:15:36;6.30;;;2.30;;
74233;SDS011;62591;55.764;37.718;2023-02-12T03:18:10;3.30;;;1.48;;
74233;SDS011;62591;55.764;37.718;2023-02-12T03:20:44;8.18;;;3.00;;
74233;SDS011;62591;55.764;37.718;2023-02-12T03:23:21;4.93;;;2.55;;
74233;SDS011;62591;55.764;37.718;2023-02-12T03:25:54;6.28;;;2.22;;
74233;SDS011;62591;55.764;37.718;2023-02-12T03:28:27;5.43;;;2.45;;
74233;SDS011;62591;55.764;37.718;2023-02-12T03:31:01;5.82;;;2.60;;
74233;SDS011;62591;55.764;37.718;2023-02-12T03:33:40;6.07;;;2.17;;
74233;SDS011;62591;55.764;37.718;2023-02-12T03:36:19;7.80;;;2.88;;
74233;SDS011;62591;55.764;37.718;2023-02-12T03:38:56;8.32;;;3.17;;
74233;SDS011;62591;55.764;37.718;2023-02-12T03:41:34;8.77;;;2.70;;
74233;SDS011;62591;55.764;37.718;2023-02-12T03:44:09;4.22;;;1.75;;
74233;SDS011;62591;55.764;37.718;2023-02-12T03:46:44;5.63;;;1.98;;
74233;SDS011;62591;55.764;37.718;2023-02-12T03:49:22;5.85;;;2.83;;
74233;SDS011;62591;55.764;37.718;2023-02-12T03:51:54;7.22;;;3.03;;
74233;SDS011;62591;55.764;37.718;2023-02-12T03:54:22;3.97;;;1.98;;
74233;SDS011;62591;55.764;37.718;2023-02-12T03:56:52;5.57;;;1.92;;
74233;SDS011;62591;55.764;37.718;2023-02-12T03:59:26;4.28;;;2.05;;
74233;SDS011;62591;55.764;37.718;2023-02-12T04:01:56;6.30;;;2.30;;
74233;SDS011;62591;55.764;37.718;2023-02-12T04:04:28;5.38;;;2.53;;
74233;SDS011;62591;55.764;37.718;2023-02-12T04:06:59;6.10;;;2.03;;
74233;SDS011;62591;55.764;37.718;2023-02-12T04:09:28;3.08;;;1.30;;
74233;SDS011;62591;55.764;37.718;2023-02-12T04:12:02;4.18;;;1.40;;
74233;SDS011;62591;55.764;37.718;2023-02-12T04:14:42;4.70;;;1.40;;
74233;SDS011;62591;55.764;37.718;2023-02-12T04:17:19;5.70;;;1.98;;
74233;SDS011;62591;55.764;37.718;2023-02-12T04:20:00;4.60;;;1.25;;
74233;SDS011;62591;55.764;37.718;2023-02-12T04:22:42;2.75;;;1.20;;
74233;SDS011;62591;55.764;37.718;2023-02-12T04:25:21;6.38;;;1.48;;
74233;SDS011;62591;55.764;37.718;2023-02-12T04:28:04;4.80;;;2.10;;
74233;SDS011;62591;55.764;37.718;2023-02-12T04:30:39;2.85;;;1.25;;
74233;SDS011;62591;55.764;37.718;2023-02-12T04:33:14;5.80;;;1.98;;
74233;SDS011;62591;55.764;37.718;2023-02-12T04:35:50;5.80;;;1.70;;
74233;SDS011;62591;55.764;37.718;2023-02-12T04:38:24;5.28;;;2.15;;
74233;SDS011;62591;55.764;37.718;2023-02-12T04:40:56;4.55;;;1.30;;
74233;SDS011;62591;55.764;37.718;2023-02-12T04:43:26;3.72;;;1.00;;
74233;SDS011;62591;55.764;37.718;2023-02-12T04:45:56;2.13;;;1.10;;
74233;SDS011;62591;55.764;37.718;2023-02-12T04:48:26;3.47;;;1.42;;
74233;SDS011;62591;55.764;37.718;2023-02-12T04:50:57;4.97;;;1.60;;
74233;SDS011;62591;55.764;37.718;2023-02-12T04:53:26;3.03;;;1.35;;
74233;SDS011;62591;55.764;37.718;2023-02-12T04:55:54;2.92;;;1.08;;
74233;SDS011;62591;55.764;37.718;2023-02-12T04:58:23;3.35;;;1.40;;
74233;SDS011;62591;55.764;37.718;2023-02-12T05:00:52;4.10;;;1.40;;
74233;SDS011;62591;55.764;37.718;2023-02-12T05:03:20;2.03;;;1.00;;
74233;SDS011;62591;55.764;37.718;2023-02-12T05:05:49;2.65;;;1.23;;
74233;SDS011;62591;55.764;37.718;2023-02-12T05:08:19;3.38;;;1.35;;
74233;SDS011;62591;55.764;37.718;2023-02-12T05:10:47;6.85;;;1.63;;
74233;SDS011;62591;55.764;37.718;2023-02-12T05:13:15;3.05;;;1.17;;
74233;SDS011;62591;55.764;37.718;2023-02-12T05:15:46;4.55;;;1.40;;
74233;SDS011;62591;55.764;37.718;2023-02-12T05:18:14;4.43;;;1.52;;
74233;SDS011;62591;55.764;37.718;2023-02-12T05:20:43;3.47;;;1.42;;
74233;SDS011;62591;55.764;37.718;2023-02-12T05:23:11;3.20;;;1.25;;
74233;SDS011;62591;55.764;37.718;2023-02-12T05:25:41;3.47;;;1.00;;
74233;SDS011;62591;55.764;37.718;2023-02-12T05:28:10;2.50;;;1.15;;
74233;SDS011;62591;55.764;37.718;2023-02-12T05:30:39;2.10;;;1.05;;
74233;SDS011;62591;55.764;37.718;2023-02-12T05:33:07;5.50;;;1.35;;
74233;SDS011;62591;55.764;37.718;2023-02-12T05:35:35;4.30;;;1.15;;
74233;SDS011;62591;55.764;37.718;2023-02-12T05:38:04;4.72;;;1.10;;
74233;SDS011;62591;55.764;37.718;2023-02-12T05:40:32;3.22;;;1.40;;
74233;SDS011;62591;55.764;37.718;2023-02-12T05:43:03;2.10;;;0.88;;
74233;SDS011;62591;55.764;37.718;2023-02-12T05:45:31;4.43;;;1.35;;
74233;SDS011;62591;55.764;37.718;2023-02-12T05:48:00;4.47;;;1.15;;
74233;SDS011;62591;55.764;37.718;2023-02-12T05:50:29;2.88;;;0.98;;
74233;SDS011;62591;55.764;37.718;2023-02-12T05:53:06;2.72;;;1.10;;
74233;SDS011;62591;55.764;37.718;2023-02-12T05:55:36;3.53;;;1.17;;
74233;SDS011;62591;55.764;37.718;2023-02-12T05:58:06;3.45;;;1.48;;
74233;SDS011;62591;55.764;37.718;2023-02-12T06:00:35;2.05;;;0.80;;
74233;SDS011;62591;55.764;37.718;2023-02-12T06:03:03;4.35;;;1.50;;
74233;SDS011;62591;55.764;37.718;2023-02-12T06:05:32;3.88;;;1.00;;
74233;SDS011;62591;55.764;37.718;2023-02-12T06:08:00;4.80;;;1.05;;
74233;SDS011;62591;55.764;37.718;2023-02-12T06:10:29;2.10;;;0.82;;
74233;SDS011;62591;55.764;37.718;2023-02-12T06:12:57;4.25;;;1.20;;
74233;SDS011;62591;55.764;37.718;2023-02-12T06:15:27;3.72;;;0.90;;
74233;SDS011;62591;55.764;37.718;2023-02-12T06:17:56;2.25;;;0.63;;
74233;SDS011;62591;55.764;37.718;2023-02-12T06:20:25;4.35;;;0.95;;
74233;SDS011;62591;55.764;37.718;2023-02-12T06:22:53;5.28;;;0.93;;
74233;SDS011;62591;55.764;37.718;2023-02-12T06:25:23;4.43;;;0.75;;
74233;SDS011;62591;55.764;37.718;2023-02-12T06:27:51;5.07;;;0.70;;
74233;SDS011;62591;55.764;37.718;2023-02-12T06:30:20;4.53;;;0.90;;
74233;SDS011;62591;55.764;37.718;2023-02-12T06:32:50;4.03;;;0.88;;
74233;SDS011;62591;55.764;37.718;2023-02-12T06:35:19;3.85;;;1.08;;
74233;SDS011;62591;55.764;37.718;2023-02-12T06:37:47;4.47;;;1.05;;
74233;SDS011;62591;55.764;37.718;2023-02-12T06:40:16;5.35;;;1.00;;
74233;SDS011;62591;55.764;37.718;2023-02-12T06:42:45;2.25;;;0.57;;
74233;SDS011;62591;55.764;37.718;2023-02-12T06:45:16;3.85;;;1.10;;
74233;SDS011;62591;55.764;37.718;2023-02-12T06:47:44;2.35;;;0.63;;
74233;SDS011;62591;55.764;37.718;2023-02-12T06:50:14;6.18;;;1.27;;
74233;SDS011;62591;55.764;37.718;2023-02-12T06:52:43;2.30;;;0.90;;
74233;SDS011;62591;55.764;37.718;2023-02-12T06:55:12;1.67;;;0.60;;
74233;SDS011;62591;55.764;37.718;2023-02-12T06:57:41;1.73;;;0.60;;
74233;SDS011;62591;55.764;37.718;2023-02-12T07:00:10;3.38;;;0.60;;
74233;SDS011;62591;55.764;37.718;2023-02-12T07:02:39;2.60;;;0.73;;
74233;SDS011;62591;55.764;37.718;2023-02-12T07:05:08;3.70;;;0.95;;
74233;SDS011;62591;55.764;37.718;2023-02-12T07:07:37;2.88;;;0.73;;
74233;SDS011;62591;55.764;37.718;2023-02-12T07:10:06;2.30;;;0.55;;
74233;SDS011;62591;55.764;37.718;2023-02-12T07:12:36;2.78;;;0.90;;
74233;SDS011;62591;55.764;37.718;2023-02-12T07:15:05;2.83;;;0.80;;
74233;SDS011;62591;55.764;37.718;2023-02-12T07:17:34;2.60;;;0.60;;
74233;SDS011;62591;55.764;37.718;2023-02-12T07:20:04;1.70;;;0.55;;
74233;SDS011;62591;55.764;37.718;2023-02-12T07:22:38;1.45;;;0.38;;
74233;SDS011;62591;55.764;37.718;2023-02-12T07:25:07;4.28;;;0.90;;
74233;SDS011;62591;55.764;37.718;2023-02-12T07:27:37;2.65;;;0.50;;
74233;SDS011;62591;55.764;37.718;2023-02-12T07:30:07;2.53;;;0.50;;
74233;SDS011;62591;55.764;37.718;2023-02-12T07:32:36;2.80;;;0.65;;
74233;SDS011;62591;55.764;37.718;2023-02-12T07:35:05;2.45;;;0.63;;
74233;SDS011;62591;55.764;37.718;2023-02-12T07:37:35;4.78;;;0.85;;
74233;SDS011;62591;55.764;37.718;2023-02-12T07:40:06;4.13;;;0.80;;
74233;SDS011;62591;55.764;37.718;2023-02-12T07:42:35;3.58;;;0.85;;
74233;SDS011;62591;55.764;37.718;2023-02-12T07:45:06;1.63;;;0.50;;
74233;SDS011;62591;55.764;37.718;2023-02-12T07:47:35;2.08;;;0.60;;
74233;SDS011;62591;55.764;37.718;2023-02-12T07:50:06;1.30;;;0.35;;
74233;SDS011;62591;55.764;37.718;2023-02-12T07:52:35;4.05;;;0.90;;
74233;SDS011;62591;55.764;37.718;2023-02-12T07:55:06;1.00;;;0.32;;
74233;SDS011;62591;55.764;37.718;2023-02-12T07:57:35;1.98;;;0.60;;
74233;SDS011;62591;55.764;37.718;2023-02-12T08:00:04;4.03;;;0.93;;
74233;SDS011;62591;55.764;37.718;2023-02-12T08:02:37;2.40;;;0.60;;
74233;SDS011;62591;55.764;37.718;2023-02-12T08:05:06;3.08;;;0.70;;
74233;SDS011;62591;55.764;37.718;2023-02-12T08:07:35;2.70;;;0.80;;
74233;SDS011;62591;55.764;37.718;2023-02-12T08:10:04;3.15;;;0.60;;
74233;SDS011;62591;55.764;37.718;2023-02-12T08:12:34;3.00;;;0.50;;
74233;SDS011;62591;55.764;37.718;2023-02-12T08:15:03;1.90;;;0.70;;
74233;SDS011;62591;55.764;37.718;2023-02-12T08:17:33;1.80;;;0.50;;
74233;SDS011;62591;55.764;37.718;2023-02-12T08:20:03;3.17;;;1.02;;
74233;SDS011;62591;55.764;37.718;2023-02-12T08:22:32;2.05;;;0.50;;
74233;SDS011;62591;55.764;37.718;2023-02-12T08:25:00;2.58;;;1.13;;
74233;SDS011;62591;55.764;37.718;2023-02-12T08:27:30;1.35;;;0.57;;
74233;SDS011;62591;55.764;37.718;2023-02-12T08:29:59;2.03;;;0.43;;
74233;SDS011;62591;55.764;37.718;2023-02-12T08:32:28;1.75;;;0.60;;
74233;SDS011;62591;55.764;37.718;2023-02-12T08:34:59;1.80;;;0.60;;
74233;SDS011;62591;55.764;37.718;2023-02-12T08:37:30;1.50;;;0.68;;
74233;SDS011;62591;55.764;37.718;2023-02-12T08:39:58;5.18;;;0.80;;
74233;SDS011;62591;55.764;37.718;2023-02-12T08:42:27;3.72;;;0.98;;
74233;SDS011;62591;55.764;37.718;2023-02-12T08:44:58;3.55;;;1.25;;
74233;SDS011;62591;55.764;37.718;2023-02-12T08:47:28;1.40;;;0.57;;
74233;SDS011;62591;55.764;37.718;2023-02-12T08:49:57;1.90;;;0.88;;
74233;SDS011;62591;55.764;37.718;2023-02-12T08:52:29;2.53;;;0.52;;
74233;SDS011;62591;55.764;37.718;2023-02-12T08:54:57;2.70;;;0.68;;
74233;SDS011;62591;55.764;37.718;2023-02-12T08:57:26;2.30;;;1.00;;
74233;SDS011;62591;55.764;37.718;2023-02-12T08:59:56;1.90;;;0.45;;
74233;SDS011;62591;55.764;37.718;2023-02-12T09:02:25;2.42;;;0.70;;
74233;SDS011;62591;55.764;37.718;2023-02-12T09:04:54;3.22;;;0.75;;
74233;SDS011;62591;55.764;37.718;2023-02-12T09:07:23;3.47;;;1.10;;
74233;SDS011;62591;55.764;37.718;2023-02-12T09:09:51;4.25;;;1.00;;
74233;SDS011;62591;55.764;37.718;2023-02-12T09:12:20;3.33;;;0.60;;
74233;SDS011;62591;55.764;37.718;2023-02-12T09:14:49;2.53;;;0.80;;
74233;SDS011;62591;55.764;37.718;2023-02-12T09:17:20;3.45;;;0.73;;
74233;SDS011;62591;55.764;37.718;2023-02-12T09:19:53;3.22;;;0.60;;
74233;SDS011;62591;55.764;37.718;2023-02-12T09:22:21;4.13;;;0.70;;
74233;SDS011;62591;55.764;37.718;2023-02-12T09:24:50;2.30;;;0.70;;
74233;SDS011;62591;55.764;37.718;2023-02-12T09:27:18;2.28;;;0.38;;
74233;SDS011;62591;55.764;37.718;2023-02-12T09:29:47;2.03;;;0.52;;
74233;SDS011;62591;55.764;37.718;2023-02-12T09:32:15;4.53;;;0.65;;
74233;SDS011;62591;55.764;37.718;2023-02-12T09:34:45;1.60;;;0.50;;
74233;SDS011;62591;55.764;37.718;2023-02-12T09:37:14;2.97;;;0.80;;
74233;SDS011;62591;55.764;37.718;2023-02-12T09:39:43;1.23;;;0.45;;
74233;SDS011;62591;55.764;37.718;2023-02-12T09:42:23;4.45;;;0.77;;
74233;SDS011;62591;55.764;37.718;2023-02-12T09:45:06;1.83;;;0.40;;
74233;SDS011;62591;55.764;37.718;2023-02-12T09:47:43;3.00;;;0.80;;
74233;SDS011;62591;55.764;37.718;2023-02-12T09:50:26;2.45;;;0.55;;
74233;SDS011;62591;55.764;37.718;2023-02-12T09:52:59;2.92;;;0.50;;
74233;SDS011;62591;55.764;37.718;2023-02-12T09:55:29;2.55;;;0.52;;
74233;SDS011;62591;55.764;37.718;2023-02-12T09:57:59;3.03;;;0.30;;
74233;SDS011;62591;55.764;37.718;2023-02-12T10:00:31;1.27;;;0.43;;
74233;SDS011;62591;55.764;37.718;2023-02-12T10:03:00;2.58;;;0.60;;
74233;SDS011;62591;55.764;37.718;2023-02-12T10:05:34;3.70;;;0.60;;
74233;SDS011;62591;55.764;37.718;2023-02-12T10:08:14;0.95;;;0.30;;
74233;SDS011;62591;55.764;37.718;2023-02-12T10:11:07;4.03;;;0.60;;
74233;SDS011;62591;55.764;37.718;2023-02-12T10:13:50;5.22;;;0.77;;
74233;SDS011;62591;55.764;37.718;2023-02-12T10:16:31;3.65;;;0.70;;
74233;SDS011;62591;55.764;37.718;2023-02-12T10:19:18;1.90;;;0.60;;
74233;SDS011;62591;55.764;37.718;2023-02-12T10:22:01;2.30;;;0.32;;
74233;SDS011;62591;55.764;37.718;2023-02-12T10:24:39;5.68;;;0.85;;
74233;SDS011;62591;55.764;37.718;2023-02-12T10:27:16;2.22;;;0.50;;
74233;SDS011;62591;55.764;37.718;2023-02-12T10:29:47;3.22;;;0.80;;
74233;SDS011;62591;55.764;37.718;2023-02-12T10:32:20;1.42;;;0.45;;
74233;SDS011;62591;55.764;37.718;2023-02-12T10:34:52;2.22;;;0.50;;
74233;SDS011;62591;55.764;37.718;2023-02-12T10:37:27;0.75;;;0.30;;
74233;SDS011;62591;55.764;37.718;2023-02-12T10:40:04;1.33;;;0.35;;
74233;SDS011;62591;55.764;37.718;2023-02-12T10:42:44;2.30;;;0.50;;
74233;SDS011;62591;55.764;37.718;2023-02-12T10:45:18;2.97;;;0.80;;
74233;SDS011;62591;55.764;37.718;2023-02-12T10:47:48;1.92;;;0.40;;
74233;SDS011;62591;55.764;37.718;2023-02-12T10:50:24;3.05;;;0.70;;
74233;SDS011;62591;55.764;37.718;2023-02-12T10:53:02;3.03;;;0.80;;
74233;SDS011;62591;55.764;37.718;2023-02-12T10:55:31;3.55;;;0.50;;
74233;SDS011;62591;55.764;37.718;2023-02-12T10:58:03;1.83;;;0.50;;
74233;SDS011;62591;55.764;37.718;2023-02-12T11:00:43;2.78;;;0.77;;
74233;SDS011;62591;55.764;37.718;2023-02-12T11:03:18;2.72;;;0.50;;
74233;SDS011;62591;55.764;37.718;2023-02-12T11:05:48;2.88;;;0.40;;
74233;SDS011;62591;55.764;37.718;2023-02-12T11:08:33;2.15;;;0.40;;
74233;SDS011;62591;55.764;37.718;2023-02-12T11:11:05;2.30;;;0.55;;
74233;SDS011;62591;55.764;37.718;2023-02-12T11:13:37;2.03;;;0.40;;
74233;SDS011;62591;55.764;37.718;2023-02-12T11:16:09;3.15;;;0.70;;
74233;SDS011;62591;55.764;37.718;2023-02-12T11:18:38;1.63;;;0.47;;
74233;SDS011;62591;55.764;37.718;2023-02-12T11:21:07;1.90;;;0.75;;
74233;SDS011;62591;55.764;37.718;2023-02-12T11:23:40;2.65;;;0.57;;
74233;SDS011;62591;55.764;37.718;2023-02-12T11:26:21;2.97;;;0.50;;
74233;SDS011;62591;55.764;37.718;2023-02-12T11:28:52;1.83;;;0.45;;
74233;SDS011;62591;55.764;37.718;2023-02-12T11:31:24;12.48;;;1.02;;
74233;SDS011;62591;55.764;37.718;2023-02-12T11:34:07;1.65;;;0.43;;
74233;SDS011;62591;55.764;37.718;2023-02-12T11:36:39;2.38;;;0.75;;
74233;SDS011;62591;55.764;37.718;2023-02-12T11:39:19;1.30;;;0.45;;
74233;SDS011;62591;55.764;37.718;2023-02-12T11:41:51;1.50;;;0.30;;
74233;SDS011;62591;55.764;37.718;2023-02-12T11:44:23;1.52;;;0.40;;
74233;SDS011;62591;55.764;37.718;2023-02-12T11:46:54;3.70;;;0.60;;
74233;SDS011;62591;55.764;37.718;2023-02-12T11:49:28;2.95;;;0.80;;
74233;SDS011;62591;55.764;37.718;2023-02-12T11:51:59;1.75;;;0.65;;
74233;SDS011;62591;55.764;37.718;2023-02-12T11:54:31;1.10;;;0.50;;
74233;SDS011;62591;55.764;37.718;2023-02-12T11:57:05;8.63;;;2.22;;
74233;SDS011;62591;55.764;37.718;2023-02-12T11:59:34;2.35;;;0.65;;
74233;SDS011;62591;55.764;37.718;2023-02-12T12:02:11;2.60;;;0.60;;
74233;SDS011;62591;55.764;37.718;2023-02-12T12:04:49;1.70;;;0.50;;
74233;SDS011;62591;55.764;37.718;2023-02-12T12:07:22;1.85;;;0.50;;
74233;SDS011;62591;55.764;37.718;2023-02-12T12:09:55;1.40;;;0.40;;
74233;SDS011;62591;55.764;37.718;2023-02-12T12:12:30;1.73;;;0.50;;
74233;SDS011;62591;55.764;37.718;2023-02-12T12:15:06;1.73;;;0.50;;
74233;SDS011;62591;55.764;37.718;2023-02-12T12:18:03;1.27;;;0.40;;
74233;SDS011;62591;55.764;37.718;2023-02-12T12:21:08;2.17;;;0.45;;
74233;SDS011;62591;55.764;37.718;2023-02-12T12:23:45;1.33;;;0.40;;
74233;SDS011;62591;55.764;37.718;2023-02-12T12:26:21;2.10;;;0.40;;
74233;SDS011;62591;55.764;37.718;2023-02-12T12:28:53;2.17;;;0.70;;
74233;SDS011;62591;55.764;37.718;2023-02-12T12:31:32;2.40;;;0.63;;
74233;SDS011;62591;55.764;37.718;2023-02-12T12:34:06;0.95;;;0.40;;
74233;SDS011;62591;55.764;37.718;2023-02-12T12:36:50;2.33;;;0.75;;
74233;SDS011;62591;55.764;37.718;2023-02-12T12:39:33;1.38;;;0.30;;
74233;SDS011;62591;55.764;37.718;2023-02-12T12:42:14;1.67;;;0.43;;
74233;SDS011;62591;55.764;37.718;2023-02-12T12:45:01;2.42;;;0.40;;
74233;SDS011;62591;55.764;37.718;2023-02-12T12:47:46;1.77;;;0.50;;
74233;SDS011;62591;55.764;37.718;2023-02-12T12:50:27;2.90;;;0.57;;
74233;SDS011;62591;55.764;37.718;2023-02-12T12:53:15;1.40;;;0.50;;
74233;SDS011;62591;55.764;37.718;2023-02-12T12:56:13;2.53;;;0.90;;
74233;SDS011;62591;55.764;37.718;2023-02-12T12:58:56;3.55;;;0.82;;
74233;SDS011;62591;55.764;37.718;2023-02-12T13:01:45;2.95;;;0.50;;
74233;SDS011;62591;55.764;37.718;2023-02-12T13:04:35;1.83;;;0.63;;
74233;SDS011;62591;55.764;37.718;2023-02-12T13:07:24;1.65;;;0.70;;
74233;SDS011;62591;55.764;37.718;2023-02-12T13:13:12;1.50;;;0.60;;
74233;SDS011;62591;55.764;37.718;2023-02-12T13:15:52;1.05;;;0.43;;
74233;SDS011;62591;55.764;37.718;2023-02-12T13:18:31;1.77;;;0.52;;
74233;SDS011;62591;55.764;37.718;2023-02-12T13:21:12;3.88;;;0.93;;
74233;SDS011;62591;55.764;37.718;2023-02-12T13:23:52;3.15;;;0.60;;
74233;SDS011;62591;55.764;37.718;2023-02-12T13:26:26;3.05;;;0.60;;
74233;SDS011;62591;55.764;37.718;2023-02-12T13:29:04;3.40;;;0.60;;
74233;SDS011;62591;55.764;37.718;2023-02-12T13:31:41;0.90;;;0.30;;
74233;SDS011;62591;55.764;37.718;2023-02-12T13:34:15;3.15;;;0.52;;
74233;SDS011;62591;55.764;37.718;2023-02-12T13:36:45;2.13;;;0.85;;
74233;SDS011;62591;55.764;37.718;2023-02-12T13:39:17;1.88;;;0.70;;
74233;SDS011;62591;55.764;37.718;2023-02-12T13:41:57;2.65;;;0.85;;
74233;SDS011;62591;55.764;37.718;2023-02-12T13:44:34;1.83;;;0.70;;
74233;SDS011;62591;55.764;37.718;2023-02-12T13:47:14;2.15;;;0.73;;
74233;SDS011;62591;55.764;37.718;2023-02-12T13:49:57;3.35;;;0.70;;
74233;SDS011;62591;55.764;37.718;2023-02-12T13:52:32;2.50;;;0.50;;
74233;SDS011;62591;55.764;37.718;2023-02-12T13:55:16;4.07;;;0.77;;
74233;SDS011;62591;55.764;37.718;2023-02-12T14:00:57;4.05;;;0.93;;
74233;SDS011;62591;55.764;37.718;2023-02-12T14:03:29;2.92;;;0.60;;
74233;SDS011;62591;55.764;37.718;2023-02-12T14:08:51;1.25;;;0.57;;
74233;SDS011;62591;55.764;37.718;2023-02-12T14:11:34;2.45;;;0.85;;
74233;SDS011;62591;55.764;37.718;2023-02-12T14:14:22;1.40;;;0.43;;
74233;SDS011;62591;55.764;37.718;2023-02-12T14:16:54;2.97;;;0.77;;
74233;SDS011;62591;55.764;37.718;2023-02-12T14:19:53;4.18;;;0.90;;
74233;SDS011;62591;55.764;37.718;2023-02-12T14:25:54;1.60;;;0.68;;
74233;SDS011;62591;55.764;37.718;2023-02-12T14:28:26;2.25;;;0.43;;
74233;SDS011;62591;55.764;37.718;2023-02-12T14:43:29;2.05;;;0.60;;
74233;SDS011;62591;55.764;37.718;2023-02-12T14:49:18;4.03;;;0.80;;
74233;SDS011;62591;55.764;37.718;2023-02-12T14:51:59;2.65;;;0.50;;
74233;SDS011;62591;55.764;37.718;2023-02-12T14:54:33;3.70;;;0.60;;
74233;SDS011;62591;55.764;37.718;2023-02-12T14:57:04;2.88;;;0.80;;
74233;SDS011;62591;55.764;37.718;2023-02-12T14:59:37;5.03;;;1.02;;
74233;SDS011;62591;55.764;37.718;2023-02-12T15:02:11;2.25;;;0.70;;
74233;SDS011;62591;55.764;37.718;2023-02-12T15:04:44;2.15;;;0.80;;
74233;SDS011;62591;55.764;37.718;2023-02-12T15:07:13;3.78;;;1.00;;
74233;SDS011;62591;55.764;37.718;2023-02-12T15:09:51;2.42;;;0.50;;
74233;SDS011;62591;55.764;37.718;2023-02-12T15:12:25;3.03;;;1.02;;
74233;SDS011;62591;55.764;37.718;2023-02-12T15:17:31;4.53;;;0.95;;
74233;SDS011;62591;55.764;37.718;2023-02-12T15:20:06;3.90;;;1.00;;
74233;SDS011;62591;55.764;37.718;2023-02-12T15:22:41;2.20;;;0.80;;
74233;SDS011;62591;55.764;37.718;2023-02-12T15:25:14;3.33;;;0.82;;
74233;SDS011;62591;55.764;37.718;2023-02-12T15:27:52;3.10;;;1.08;;
74233;SDS011;62591;55.764;37.718;2023-02-12T15:30:24;1.83;;;0.80;;
74233;SDS011;62591;55.764;37.718;2023-02-12T15:32:56;2.03;;;0.63;;
74233;SDS011;62591;55.764;37.718;2023-02-12T15:35:28;2.40;;;0.63;;
74233;SDS011;62591;55.764;37.718;2023-02-12T15:37:58;3.45;;;1.00;;
74233;SDS011;62591;55.764;37.718;2023-02-12T15:40:29;1.73;;;0.68;;
74233;SDS011;62591;55.764;37.718;2023-02-12T15:42:59;2.17;;;0.73;;